createdAt,value
2023-03-15T00:01:28.792Z,98562.13
2023-03-15T00:04:01.310Z,98572.94
2023-03-15T00:06:36.234Z,98595.63
2023-03-15T00:09:10.872Z,98603.69
2023-03-15T00:11:43.966Z,98601.63
2023-03-15T00:14:25.149Z,98618.00
2023-03-15T00:17:07.313Z,98611.28
2023-03-15T00:19:43.828Z,98613.00
2023-03-15T00:22:17.947Z,98602.75
2023-03-15T00:24:48.813Z,98606.59
2023-03-15T00:27:26.387Z,98609.63
2023-03-15T00:30:08.629Z,98606.44
2023-03-15T00:32:39.730Z,98620.19
2023-03-15T00:35:13.336Z,98609.44
2023-03-15T00:37:42.857Z,98606.63
2023-03-15T00:40:20.726Z,98608.34
2023-03-15T00:42:50.297Z,98607.69
2023-03-15T00:45:34.090Z,98618.19
2023-03-15T00:48:02.769Z,98620.38
2023-03-15T00:50:30.795Z,98640.13
2023-03-15T00:52:59.428Z,98610.41
2023-03-15T00:55:34.292Z,98616.00
2023-03-15T00:58:05.730Z,98632.19
2023-03-15T01:00:38.291Z,98639.47
2023-03-15T01:03:18.236Z,98620.97
2023-03-15T01:05:46.442Z,98634.91
2023-03-15T01:08:20.649Z,98628.53
2023-03-15T01:10:49.405Z,98654.78
2023-03-15T01:13:21.576Z,98639.06
2023-03-15T01:16:00.169Z,98656.50
2023-03-15T01:18:34.783Z,98648.16
2023-03-15T01:21:08.296Z,98659.91
2023-03-15T01:23:41.051Z,98659.19
2023-03-15T01:26:21.431Z,98664.38
2023-03-15T01:28:52.467Z,98667.13
2023-03-15T01:31:28.264Z,98696.13
2023-03-15T01:34:05.748Z,98693.13
2023-03-15T01:36:35.666Z,98698.38
2023-03-15T01:39:05.233Z,98701.31
2023-03-15T01:41:50.161Z,98711.34
2023-03-15T01:44:21.190Z,98715.03
2023-03-15T01:46:55.430Z,98710.03
2023-03-15T01:49:33.373Z,98724.22
2023-03-15T01:52:06.603Z,98714.16
2023-03-15T01:54:59.123Z,98732.50
2023-03-15T01:57:30.803Z,98739.09
2023-03-15T02:00:19.090Z,98747.34
2023-03-15T02:03:17.703Z,98730.06
2023-03-15T02:05:55.169Z,98742.47
2023-03-15T02:08:45.153Z,98751.56
2023-03-15T02:11:15.103Z,98748.91
2023-03-15T02:13:55.001Z,98748.91
2023-03-15T02:16:30.475Z,98757.16
2023-03-15T02:19:15.546Z,98757.13
2023-03-15T02:21:53.997Z,98765.09
2023-03-15T02:24:33.159Z,98746.69
2023-03-15T02:27:05.096Z,98748.38
2023-03-15T02:29:36.976Z,98741.50
2023-03-15T02:32:17.092Z,98753.25
2023-03-15T02:34:45.507Z,98743.72
2023-03-15T02:37:19.489Z,98753.66
2023-03-15T02:39:49.114Z,98753.94
2023-03-15T02:42:21.399Z,98751.56
2023-03-15T02:44:58.826Z,98739.84
2023-03-15T02:47:36.240Z,98737.06
2023-03-15T02:50:10.600Z,98743.31
2023-03-15T02:52:39.806Z,98741.09
2023-03-15T02:55:14.742Z,98760.66
2023-03-15T02:57:43.567Z,98743.63
2023-03-15T03:00:19.921Z,98743.75
2023-03-15T03:02:49.448Z,98751.84
2023-03-15T03:05:21.259Z,98758.00
2023-03-15T03:07:51.020Z,98760.78
2023-03-15T03:10:28.407Z,98761.63
2023-03-15T03:13:02.000Z,98755.34
2023-03-15T03:15:43.995Z,98768.19
2023-03-15T03:18:37.073Z,98773.91
2023-03-15T03:21:18.890Z,98785.63
2023-03-15T03:23:50.322Z,98780.84
2023-03-15T03:26:21.929Z,98787.81
2023-03-15T03:29:05.671Z,98788.41
2023-03-15T03:31:43.618Z,98795.00
2023-03-15T03:34:16.690Z,98794.25
2023-03-15T03:36:48.738Z,98787.13
2023-03-15T03:39:34.946Z,98792.75
2023-03-15T03:42:06.373Z,98800.09
2023-03-15T03:44:34.616Z,98799.91
2023-03-15T03:47:08.976Z,98801.03
2023-03-15T03:49:38.208Z,98797.38
2023-03-15T03:52:15.935Z,98813.19
2023-03-15T03:54:47.843Z,98819.94
2023-03-15T03:57:24.906Z,98819.47
2023-03-15T03:59:55.892Z,98811.19
2023-03-15T04:02:31.913Z,98820.56
2023-03-15T04:05:14.462Z,98819.03
2023-03-15T04:07:46.217Z,98821.28
2023-03-15T04:10:22.709Z,98819.34
2023-03-15T04:12:54.458Z,98832.41
2023-03-15T04:15:24.008Z,98824.00
2023-03-15T04:17:59.940Z,98836.84
2023-03-15T04:20:36.172Z,98834.66
2023-03-15T04:23:08.766Z,98833.47
2023-03-15T04:25:59.215Z,98846.44
2023-03-15T04:28:59.905Z,98865.44
2023-03-15T04:32:02.808Z,98869.00
2023-03-15T04:34:51.377Z,98866.88
2023-03-15T04:37:42.565Z,98872.94
2023-03-15T04:40:35.225Z,98882.78
2023-03-15T04:43:36.830Z,98880.53
2023-03-15T04:46:47.273Z,98875.00
2023-03-15T04:49:53.174Z,98880.72
2023-03-15T04:52:33.404Z,98868.75
2023-03-15T04:55:29.594Z,98882.03
2023-03-15T04:58:24.585Z,98889.91
2023-03-15T05:01:30.890Z,98899.59
2023-03-15T05:04:22.557Z,98907.22
2023-03-15T05:07:27.814Z,98923.28
2023-03-15T05:10:29.838Z,98907.88
2023-03-15T05:13:20.888Z,98916.00
2023-03-15T05:16:24.293Z,98935.66
2023-03-15T05:19:35.615Z,98916.66
2023-03-15T05:22:28.504Z,98916.78
2023-03-15T05:25:16.938Z,98915.97
2023-03-15T05:28:13.637Z,98922.03
2023-03-15T05:31:02.957Z,98932.41
2023-03-15T05:33:35.414Z,98936.00
2023-03-15T05:36:34.316Z,98936.88
2023-03-15T05:39:24.763Z,98937.06
2023-03-15T05:42:15.580Z,98938.22
2023-03-15T05:45:04.732Z,98939.06
2023-03-15T05:48:08.252Z,98952.13
2023-03-15T05:51:05.157Z,98950.56
2023-03-15T05:53:54.469Z,98958.88
2023-03-15T05:56:51.672Z,98967.41
2023-03-15T05:59:48.352Z,98982.19
2023-03-15T06:02:52.161Z,98976.66
2023-03-15T06:05:41.744Z,98994.50
2023-03-15T06:08:20.159Z,98999.13
2023-03-15T06:10:51.948Z,98994.28
2023-03-15T06:13:35.472Z,99000.34
2023-03-15T06:16:10.121Z,99008.28
2023-03-15T06:18:57.640Z,99011.13
2023-03-15T06:21:28.816Z,99000.28
2023-03-15T06:23:59.359Z,99028.53
2023-03-15T06:26:27.870Z,99025.75
2023-03-15T06:29:19.304Z,99029.56
2023-03-15T06:31:50.855Z,99031.84
2023-03-15T06:34:21.365Z,99040.06
2023-03-15T06:37:04.984Z,99037.00
2023-03-15T06:39:38.320Z,99057.06
2023-03-15T06:42:11.960Z,99042.72
2023-03-15T06:44:51.320Z,99061.75
2023-03-15T06:47:21.932Z,99075.25
2023-03-15T06:49:56.989Z,99060.84
2023-03-15T06:52:28.515Z,99060.59
2023-03-15T06:54:58.282Z,99074.78
2023-03-15T06:57:27.531Z,99075.25
2023-03-15T07:00:11.412Z,99074.75
2023-03-15T07:02:42.878Z,99090.25
2023-03-15T07:05:12.463Z,99094.81
2023-03-15T07:07:42.029Z,99108.31
2023-03-15T07:10:15.801Z,99112.59
2023-03-15T07:12:47.486Z,99116.38
2023-03-15T07:15:29.209Z,99116.22
2023-03-15T07:18:02.812Z,99125.59
2023-03-15T07:20:35.088Z,99133.16
2023-03-15T07:23:10.117Z,99140.69
2023-03-15T07:25:54.704Z,99155.56
2023-03-15T07:28:27.477Z,99144.63
2023-03-15T07:31:04.194Z,99155.34
2023-03-15T07:33:37.701Z,99149.38
2023-03-15T07:36:11.236Z,99163.13
2023-03-15T07:38:42.017Z,99160.38
2023-03-15T07:41:13.881Z,99168.81
2023-03-15T07:43:56.920Z,99168.44
2023-03-15T07:46:30.473Z,99155.41
2023-03-15T07:49:05.837Z,99178.13
2023-03-15T07:51:42.314Z,99175.34
2023-03-15T07:54:14.604Z,99184.47
2023-03-15T07:56:44.077Z,99170.94
2023-03-15T07:59:20.763Z,99178.03
2023-03-15T08:02:02.854Z,99187.97
2023-03-15T08:04:33.437Z,99181.34
2023-03-15T08:07:04.759Z,99199.19
2023-03-15T08:09:34.709Z,99178.63
2023-03-15T08:12:04.740Z,99202.28
2023-03-15T08:14:35.794Z,99192.56
2023-03-15T08:17:05.496Z,99190.00
2023-03-15T08:19:37.202Z,99195.50
2023-03-15T08:22:06.628Z,99196.34
2023-03-15T08:24:45.540Z,99196.94
2023-03-15T08:27:16.308Z,99206.88
2023-03-15T08:29:47.235Z,99215.25
2023-03-15T08:32:25.081Z,99207.84
2023-03-15T08:34:58.419Z,99213.50
2023-03-15T08:37:30.585Z,99214.41
2023-03-15T08:40:09.565Z,99223.09
2023-03-15T08:42:40.808Z,99238.00
2023-03-15T08:45:19.063Z,99222.44
2023-03-15T08:47:51.949Z,99224.53
2023-03-15T08:50:23.573Z,99234.09
2023-03-15T08:52:52.353Z,99244.03
2023-03-15T08:55:22.408Z,99255.03
2023-03-15T08:57:53.497Z,99255.31
2023-03-15T09:00:28.469Z,99249.41
2023-03-15T09:03:11.921Z,99248.16
2023-03-15T09:05:43.909Z,99257.56
2023-03-15T09:08:14.664Z,99261.63
2023-03-15T09:10:48.455Z,99269.47
2023-03-15T09:13:22.204Z,99255.81
2023-03-15T09:15:52.200Z,99268.22
2023-03-15T09:18:34.059Z,99254.34
2023-03-15T09:21:03.665Z,99259.97
2023-03-15T09:23:32.005Z,99304.94
2023-03-15T09:26:02.031Z,99276.00
2023-03-15T09:28:34.453Z,99281.88
2023-03-15T09:31:10.020Z,99278.03
2023-03-15T09:33:49.167Z,99281.16
2023-03-15T09:36:20.751Z,99313.28
2023-03-15T09:38:49.776Z,99291.56
2023-03-15T09:41:40.754Z,99291.78
2023-03-15T09:44:42.991Z,99305.09
2023-03-15T09:47:39.727Z,99300.91
2023-03-15T09:50:18.055Z,99321.63
2023-03-15T09:52:50.459Z,99313.94
2023-03-15T09:55:22.984Z,99290.91
2023-03-15T09:57:58.200Z,99297.81
2023-03-15T10:00:33.927Z,99295.38
2023-03-15T10:03:07.568Z,99294.19
2023-03-15T10:05:50.344Z,99314.63
2023-03-15T10:08:25.142Z,99292.47
2023-03-15T10:11:00.799Z,99287.72
2023-03-15T10:13:56.923Z,99299.00
2023-03-15T10:16:30.660Z,99298.38
2023-03-15T10:19:08.261Z,99296.88
2023-03-15T10:21:51.651Z,99316.53
2023-03-15T10:24:29.150Z,99318.81
2023-03-15T10:27:21.692Z,99290.06
2023-03-15T10:29:51.660Z,99318.88
2023-03-15T10:32:31.769Z,99299.63
2023-03-15T10:35:03.310Z,99297.06
2023-03-15T10:37:37.871Z,99299.59
2023-03-15T10:40:16.738Z,99301.81
2023-03-15T10:42:47.541Z,99267.69
2023-03-15T10:45:24.139Z,99312.28
2023-03-15T10:48:00.792Z,99283.59
2023-03-15T10:50:34.765Z,99283.34
2023-03-15T10:53:11.628Z,99282.41
2023-03-15T10:55:54.637Z,99288.56
2023-03-15T10:58:28.629Z,99285.34
2023-03-15T11:01:03.210Z,99290.13
2023-03-15T11:03:32.592Z,99290.81
2023-03-15T11:06:05.056Z,99282.97
2023-03-15T11:08:46.509Z,99276.75
2023-03-15T11:11:23.879Z,99270.97
2023-03-15T11:14:03.922Z,99280.59
2023-03-15T11:16:36.662Z,99280.19
2023-03-15T11:19:18.250Z,99275.13
2023-03-15T11:21:53.957Z,99287.72
2023-03-15T11:24:34.686Z,99284.09
2023-03-15T11:27:07.600Z,99298.53
2023-03-15T11:29:38.250Z,99289.50
2023-03-15T11:32:26.062Z,99293.34
2023-03-15T11:35:01.678Z,99280.56
2023-03-15T11:37:49.138Z,99276.94
2023-03-15T11:40:25.586Z,99280.88
2023-03-15T11:42:59.746Z,99287.88
2023-03-15T11:45:35.713Z,99310.28
2023-03-15T11:48:28.120Z,99293.78
2023-03-15T11:51:01.372Z,99304.69
2023-03-15T11:53:46.367Z,99307.03
2023-03-15T11:56:52.799Z,99281.44
2023-03-15T11:59:28.755Z,99329.19
2023-03-15T12:01:59.763Z,99287.91
2023-03-15T12:04:50.305Z,99320.81
2023-03-15T12:07:49.885Z,99295.72
2023-03-15T12:10:46.832Z,99300.66
2023-03-15T12:13:36.314Z,99295.56
2023-03-15T12:16:11.061Z,99293.31
2023-03-15T12:18:44.825Z,99294.75
2023-03-15T12:21:22.563Z,99295.03
2023-03-15T12:24:00.214Z,99286.78
2023-03-15T12:26:41.186Z,99280.91
2023-03-15T12:29:26.666Z,99288.72
2023-03-15T12:31:59.619Z,99320.34
2023-03-15T12:34:32.820Z,99283.78
2023-03-15T12:37:05.964Z,99282.47
2023-03-15T12:39:47.161Z,99284.47
2023-03-15T12:42:49.792Z,99270.66
2023-03-15T12:45:39.713Z,99270.00
2023-03-15T12:48:40.936Z,99292.84
2023-03-15T12:51:46.244Z,99312.53
2023-03-15T12:54:24.457Z,99266.00
2023-03-15T12:56:57.992Z,99279.06
2023-03-15T12:59:35.057Z,99283.13
2023-03-15T13:02:07.386Z,99330.03
2023-03-15T13:04:38.475Z,99256.59
2023-03-15T13:07:45.613Z,99299.47
2023-03-15T13:10:36.171Z,99272.00
2023-03-15T13:13:41.178Z,99276.03
2023-03-15T13:16:19.934Z,99251.63
2023-03-15T13:18:54.633Z,99262.63
2023-03-15T13:21:28.918Z,99257.75
2023-03-15T13:24:00.627Z,99304.50
2023-03-15T13:26:48.595Z,99292.81
2023-03-15T13:29:20.141Z,99286.75
2023-03-15T13:32:04.171Z,99275.16
2023-03-15T13:34:34.455Z,99279.03
2023-03-15T13:37:08.498Z,99317.94
2023-03-15T13:39:57.425Z,99285.38
2023-03-15T13:42:42.917Z,99264.91
2023-03-15T13:45:20.283Z,99278.22
2023-03-15T13:47:57.326Z,99264.25
2023-03-15T13:50:28.994Z,99279.91
2023-03-15T13:52:59.981Z,99283.19
2023-03-15T13:55:37.974Z,99268.41
2023-03-15T13:58:09.578Z,99268.63
2023-03-15T14:00:47.251Z,99266.84
2023-03-15T14:03:24.342Z,99316.56
2023-03-15T14:06:04.964Z,99286.66
2023-03-15T14:08:38.050Z,99275.72
2023-03-15T14:11:16.784Z,99275.56
2023-03-15T14:14:02.381Z,99268.41
2023-03-15T14:16:42.812Z,99283.84
2023-03-15T14:19:28.000Z,99268.50
2023-03-15T14:22:06.605Z,99280.16
2023-03-15T14:24:40.386Z,99271.03
2023-03-15T14:27:25.950Z,99281.09
2023-03-15T14:30:00.865Z,99293.53
2023-03-15T14:32:41.616Z,99293.06
2023-03-15T14:35:29.551Z,99277.88
2023-03-15T14:38:09.122Z,99275.91
2023-03-15T14:40:46.830Z,99272.03
2023-03-15T14:43:21.002Z,99273.75
2023-03-15T14:45:51.356Z,99280.50
2023-03-15T14:48:28.091Z,99272.03
2023-03-15T14:50:57.935Z,99274.69
2023-03-15T14:53:30.821Z,99283.97
2023-03-15T14:56:01.276Z,99303.66
2023-03-15T14:58:33.459Z,99307.88
2023-03-15T15:01:08.062Z,99300.09
2023-03-15T15:03:46.883Z,99295.38
2023-03-15T15:06:21.942Z,99306.91
2023-03-15T15:08:56.744Z,99291.22
2023-03-15T15:11:35.228Z,99312.75
2023-03-15T15:14:12.115Z,99339.09
2023-03-15T15:16:42.367Z,99332.03
2023-03-15T15:19:19.459Z,99317.28
2023-03-15T15:22:12.943Z,99308.06
2023-03-15T15:24:42.557Z,99312.72
2023-03-15T15:27:11.765Z,99305.69
2023-03-15T15:29:42.610Z,99359.56
2023-03-15T15:32:14.046Z,99325.38
2023-03-15T15:34:42.640Z,99328.28
2023-03-15T15:37:13.196Z,99353.41
2023-03-15T15:39:48.652Z,99344.03
2023-03-15T15:42:20.024Z,99333.09
2023-03-15T15:44:52.023Z,99343.34
2023-03-15T15:47:30.304Z,99341.97
2023-03-15T15:50:01.110Z,99343.38
2023-03-15T15:52:30.807Z,99359.28
2023-03-15T15:55:02.461Z,99342.50
2023-03-15T15:57:32.418Z,99340.38
2023-03-15T16:00:11.170Z,99352.59
2023-03-15T16:03:12.929Z,99354.84
2023-03-15T16:05:42.589Z,99372.50
2023-03-15T16:08:24.002Z,99370.69
2023-03-15T16:11:00.385Z,99376.28
2023-03-15T16:13:58.086Z,99371.94
2023-03-15T16:16:33.402Z,99370.56
2023-03-15T16:19:07.927Z,99370.41
2023-03-15T16:21:41.722Z,99374.03
2023-03-15T16:24:19.987Z,99376.44
2023-03-15T16:26:53.009Z,99381.19
2023-03-15T16:29:47.122Z,99392.09
2023-03-15T16:32:36.738Z,99387.63
2023-03-15T16:35:30.959Z,99397.28
2023-03-15T16:38:28.032Z,99397.47
2023-03-15T16:41:00.502Z,99401.88
2023-03-15T16:43:34.353Z,99397.38
2023-03-15T16:46:30.456Z,99413.78
2023-03-15T16:49:15.830Z,99411.28
2023-03-15T16:51:49.727Z,99417.44
2023-03-15T16:54:40.230Z,99424.41
2023-03-15T16:57:31.807Z,99440.47
2023-03-15T17:00:22.864Z,99431.22
2023-03-15T17:03:02.637Z,99449.22
2023-03-15T17:05:57.323Z,99439.88
2023-03-15T17:08:45.031Z,99436.69
2023-03-15T17:11:18.651Z,99441.88
2023-03-15T17:13:54.568Z,99444.78
2023-03-15T17:16:40.864Z,99457.19
2023-03-15T17:19:21.406Z,99463.56
2023-03-15T17:22:21.199Z,99468.78
2023-03-15T17:24:54.233Z,99490.03
2023-03-15T17:27:32.978Z,99502.47
2023-03-15T17:30:13.722Z,99512.28
2023-03-15T17:32:55.906Z,99511.38
2023-03-15T17:35:39.396Z,99512.09
2023-03-15T17:38:30.446Z,99520.66
2023-03-15T17:41:09.220Z,99526.25
2023-03-15T17:43:50.400Z,99530.44
2023-03-15T17:46:34.939Z,99542.53
2023-03-15T17:49:18.397Z,99540.75
2023-03-15T17:51:52.924Z,99547.63
2023-03-15T17:54:39.183Z,99553.41
2023-03-15T17:57:12.093Z,99570.75
2023-03-15T17:59:55.643Z,99557.38
2023-03-15T18:02:28.560Z,99556.66
2023-03-15T18:05:00.331Z,99571.13
2023-03-15T18:07:43.529Z,99570.28
2023-03-15T18:10:41.088Z,99577.88
2023-03-15T18:13:22.499Z,99577.88
2023-03-15T18:15:52.858Z,99576.19
2023-03-15T18:18:27.266Z,99583.19
2023-03-15T18:21:06.253Z,99587.53
2023-03-15T18:23:44.011Z,99582.09
2023-03-15T18:26:24.958Z,99582.34
2023-03-15T18:28:58.277Z,99578.59
2023-03-15T18:31:39.417Z,99593.78
2023-03-15T18:34:26.056Z,99594.88
2023-03-15T18:37:06.580Z,99595.22
2023-03-15T18:39:40.220Z,99603.66
2023-03-15T18:42:43.120Z,99600.63
2023-03-15T18:45:37.906Z,99603.81
2023-03-15T18:48:10.747Z,99607.88
2023-03-15T18:51:04.919Z,99606.44
2023-03-15T18:53:37.556Z,99602.94
2023-03-15T18:56:33.449Z,99602.09
2023-03-15T18:59:27.827Z,99616.09
2023-03-15T19:01:58.580Z,99611.03
2023-03-15T19:04:37.106Z,99610.44
2023-03-15T19:07:25.309Z,99609.81
2023-03-15T19:10:12.638Z,99611.63
2023-03-15T19:13:11.142Z,99611.84
2023-03-15T19:15:58.281Z,99615.88
2023-03-15T19:18:44.578Z,99615.50
2023-03-15T19:21:27.225Z,99618.50
2023-03-15T19:24:14.912Z,99615.03
2023-03-15T19:26:53.244Z,99622.00
2023-03-15T19:29:57.851Z,99636.47
2023-03-15T19:32:45.661Z,99639.03
2023-03-15T19:35:33.591Z,99633.72
2023-03-15T19:38:11.791Z,99647.09
2023-03-15T19:40:55.915Z,99646.72
2023-03-15T19:43:28.359Z,99651.56
2023-03-15T19:46:22.284Z,99656.84
2023-03-15T19:49:09.476Z,99664.34
2023-03-15T19:51:43.071Z,99659.38
2023-03-15T19:54:23.241Z,99662.66
2023-03-15T19:57:06.511Z,99653.47
2023-03-15T19:59:42.356Z,99672.19
2023-03-15T20:02:25.562Z,99664.81
2023-03-15T20:05:08.744Z,99673.84
2023-03-15T20:08:01.966Z,99661.53
2023-03-15T20:10:54.423Z,99669.88
2023-03-15T20:13:31.334Z,99664.66
2023-03-15T20:16:29.403Z,99670.69
2023-03-15T20:19:08.896Z,99669.47
2023-03-15T20:22:11.514Z,99679.50
2023-03-15T20:24:51.822Z,99680.38
2023-03-15T20:27:26.708Z,99689.84
2023-03-15T20:30:06.830Z,99689.88
2023-03-15T20:32:41.729Z,99682.84
2023-03-15T20:35:22.226Z,99692.28
2023-03-15T20:38:05.997Z,99684.63
2023-03-15T20:40:41.397Z,99687.53
2023-03-15T20:43:20.632Z,99693.66
2023-03-15T20:46:01.090Z,99695.16
2023-03-15T20:48:34.269Z,99692.72
2023-03-15T20:51:12.924Z,99696.78
2023-03-15T20:54:04.254Z,99701.53
2023-03-15T20:56:47.204Z,99702.38
2023-03-15T20:59:29.325Z,99700.84
2023-03-15T21:02:15.884Z,99701.59
2023-03-15T21:04:48.803Z,99708.19
2023-03-15T21:07:23.459Z,99729.50
2023-03-15T21:10:21.212Z,99721.59
2023-03-15T21:13:03.651Z,99731.94
2023-03-15T21:15:52.158Z,99731.16
2023-03-15T21:18:32.519Z,99731.72
2023-03-15T21:21:04.991Z,99729.22
2023-03-15T21:23:47.592Z,99741.84
2023-03-15T21:26:37.562Z,99725.28
2023-03-15T21:29:07.512Z,99737.28
2023-03-15T21:32:01.192Z,99736.38
2023-03-15T21:34:36.747Z,99738.34
2023-03-15T21:37:09.480Z,99739.72
2023-03-15T21:39:46.623Z,99745.22
2023-03-15T21:42:43.459Z,99753.13
2023-03-15T21:45:16.938Z,99749.56
2023-03-15T21:47:55.532Z,99743.59
2023-03-15T21:50:32.432Z,99744.50
2023-03-15T21:53:05.213Z,99761.66
2023-03-15T21:55:40.877Z,99770.50
2023-03-15T21:58:16.233Z,99750.91
2023-03-15T22:00:57.738Z,99761.50
2023-03-15T22:03:30.287Z,99762.50
2023-03-15T22:06:00.766Z,99761.22
2023-03-15T22:08:30.086Z,99745.22
2023-03-15T22:11:08.600Z,99758.56
2023-03-15T22:13:38.515Z,99766.19
2023-03-15T22:16:16.642Z,99761.78
2023-03-15T22:18:57.357Z,99765.53
2023-03-15T22:21:36.339Z,99771.50
2023-03-15T22:24:07.584Z,99777.31
2023-03-15T22:26:36.260Z,99796.16
2023-03-15T22:29:12.741Z,99791.50
2023-03-15T22:31:56.249Z,99795.41
2023-03-15T22:34:27.637Z,99798.53
2023-03-15T22:36:57.030Z,99805.06
2023-03-15T22:39:29.367Z,99787.59
2023-03-15T22:42:03.308Z,99798.28
2023-03-15T22:44:35.804Z,99798.06
2023-03-15T22:47:05.256Z,99804.63
2023-03-15T22:49:34.634Z,99794.81
2023-03-15T22:52:04.225Z,99818.03
2023-03-15T22:54:43.596Z,99820.53
2023-03-15T22:57:25.537Z,99834.72
2023-03-15T23:00:14.900Z,99828.06
2023-03-15T23:02:45.423Z,99831.38
2023-03-15T23:05:18.973Z,99840.81
2023-03-15T23:07:51.848Z,99842.41
2023-03-15T23:10:24.391Z,99848.75
2023-03-15T23:12:53.908Z,99865.00
2023-03-15T23:15:26.078Z,99865.56
2023-03-15T23:17:55.776Z,99861.44
2023-03-15T23:20:26.419Z,99853.53
2023-03-15T23:22:59.483Z,99864.38
2023-03-15T23:25:29.335Z,99857.44
2023-03-15T23:27:58.861Z,99862.19
2023-03-15T23:30:35.933Z,99870.41
2023-03-15T23:33:15.719Z,99873.75
2023-03-15T23:35:58.299Z,99878.31
2023-03-15T23:38:28.062Z,99871.03
2023-03-15T23:40:59.891Z,99866.88
2023-03-15T23:43:37.390Z,99876.47
2023-03-15T23:46:14.869Z,99861.47
2023-03-15T23:49:00.118Z,99867.47
2023-03-15T23:51:29.102Z,99880.84
2023-03-15T23:53:58.483Z,99872.13
2023-03-15T23:56:28.766Z,99875.06
2023-03-15T23:59:12.245Z,99875.97
